Time;durP1;ratioP1;P1;durP2;ratioP2;P2;SDS_P1;SDS_P2;PMS_P1;PMS_P2;Temp;Humidity;BMP_temperature;BMP_pressure;BME280_temperature;BME280_humidity;BME280_pressure;Samples;Min_cycle;Max_cycle;Signal;HPM_P1;HPM_P2
2023/10/13 00:01:47;;;;;;;5.03;2.00;;;;;;;10.25;76.54;98223.53;4906698;29;20033;-89
2023/10/13 00:04:13;;;;;;;9.43;1.77;;;;;;;10.46;76.25;98267.19;4897972;29;20035;-90
2023/10/13 00:06:39;;;;;;;4.05;1.55;;;;;;;10.29;76.13;98233.47;4920660;29;20036;-91
2023/10/13 00:09:05;;;;;;;10.15;1.98;;;;;;;10.46;76.32;98256.28;4924537;29;20044;-89
2023/10/13 00:11:31;;;;;;;5.82;1.80;;;;;;;10.27;75.86;98241.22;4909267;29;20040;-89
2023/10/13 00:14:03;;;;;;;5.85;2.05;;;;;;;10.27;75.85;98243.16;4896770;29;20071;-89
2023/10/13 00:16:31;;;;;;;7.68;1.80;;;;;;;10.47;75.93;98275.06;4884534;29;20040;-94
2023/10/13 00:19:00;;;;;;;6.35;2.05;;;;;;;10.41;75.86;98262.75;4882215;29;20040;-89
2023/10/13 00:21:33;;;;;;;6.38;1.80;;;;;;;10.54;75.29;98283.50;4898094;29;20024;-90
2023/10/13 00:24:06;;;;;;;10.63;2.38;;;;;;;10.22;75.51;98254.25;4915211;29;20107;-89
2023/10/13 00:26:42;;;;;;;5.47;1.92;;;;;;;10.39;75.96;98272.41;4894307;29;20059;-88
2023/10/13 00:29:15;;;;;;;8.00;1.83;;;;;;;10.21;75.41;98261.63;4901485;29;20111;-88
2023/10/13 00:31:42;;;;;;;10.20;1.77;;;;;;;10.12;75.46;98253.53;4894128;29;20036;-90
2023/10/13 00:34:25;;;;;;;4.25;1.77;;;;;;;10.39;75.33;98289.59;4871020;29;20089;-90
2023/10/13 00:39:37;;;;;;;5.28;1.75;;;;;;;10.10;75.14;98263.22;4887639;29;20061;-91
2023/10/13 00:42:17;;;;;;;6.22;1.58;;;;;;;10.29;75.12;98303.69;4880311;29;20097;-91
2023/10/13 00:44:49;;;;;;;5.90;1.80;;;;;;;10.26;74.81;98293.44;4889190;29;20056;-94
2023/10/13 00:50:05;;;;;;;7.95;1.80;;;;;;;10.10;74.55;98276.84;4871960;29;20056;-93
2023/10/13 00:52:35;;;;;;;5.63;1.80;;;;;;;10.32;74.34;98316.66;4867246;29;20080;-90
2023/10/13 00:55:02;;;;;;;4.95;1.63;;;;;;;9.96;74.26;98266.19;4877190;29;20067;-90
2023/10/13 00:57:30;;;;;;;4.82;1.83;;;;;;;10.22;74.60;98319.78;4855097;29;20071;-91
2023/10/13 00:59:57;;;;;;;8.45;1.75;;;;;;;10.24;74.57;98326.53;4865838;29;20049;-90
2023/10/13 01:02:41;;;;;;;;;;;;;;;10.27;74.29;98331.34;4870895;29;20084;-90
2023/10/13 01:05:19;;;;;;;9.07;2.17;;;;;;;10.18;74.21;98300.53;4889409;29;19924;-90
2023/10/13 01:07:50;;;;;;;;;;;;;;;10.27;74.38;98322.34;4889281;29;20127;-90
2023/10/13 01:10:17;;;;;;;4.13;1.42;;;;;;;9.88;74.35;98259.69;4862926;29;19924;-90
2023/10/13 01:12:43;;;;;;;7.65;1.70;;;;;;;10.02;74.33;98289.44;4900157;29;20112;-90
2023/10/13 01:15:11;;;;;;;7.88;1.73;;;;;;;10.25;74.40;98321.84;4889571;29;20068;-91
2023/10/13 01:17:37;;;;;;;10.27;2.05;;;;;;;10.03;74.84;98290.22;4892183;29;20093;-91
2023/10/13 01:20:05;;;;;;;6.88;2.05;;;;;;;9.95;74.79;98294.63;4909814;29;20048;-90
2023/10/13 01:22:32;;;;;;;6.97;1.75;;;;;;;9.86;74.96;98280.25;4880173;29;20075;-90
2023/10/13 01:25:07;;;;;;;9.23;2.13;;;;;;;10.03;75.04;98304.69;4893437;29;20099;-95
2023/10/13 01:27:38;;;;;;;5.97;1.77;;;;;;;10.10;75.44;98315.88;4906049;29;20055;-91
2023/10/13 01:30:22;;;;;;;5.20;1.58;;;;;;;9.94;75.41;98289.53;4914221;29;20047;-88
2023/10/13 01:32:51;;;;;;;6.45;1.77;;;;;;;9.96;75.25;98293.50;4875923;29;20047;-90
2023/10/13 01:35:38;;;;;;;6.43;1.77;;;;;;;10.02;75.39;98297.63;4905150;29;20040;-93
2023/10/13 01:38:06;;;;;;;8.30;1.70;;;;;;;10.11;75.07;98303.81;4893723;29;20116;-89
2023/10/13 01:40:33;;;;;;;9.13;1.70;;;;;;;9.96;75.12;98285.31;4897815;29;20143;-90
2023/10/13 01:42:59;;;;;;;4.78;1.50;;;;;;;10.19;74.97;98309.53;4902489;29;20040;-89
2023/10/13 01:45:28;;;;;;;10.40;2.28;;;;;;;10.08;75.16;98293.56;4880817;29;20054;-93
2023/10/13 01:47:55;;;;;;;6.03;1.67;;;;;;;10.02;74.95;98296.81;4890399;29;20132;-90
2023/10/13 01:50:29;;;;;;;10.38;1.83;;;;;;;10.20;74.92;98314.69;4899056;29;20043;-88
2023/10/13 01:53:12;;;;;;;6.70;2.03;;;;;;;10.00;74.94;98302.63;4908251;29;20265;-90
2023/10/13 01:55:42;;;;;;;4.80;1.98;;;;;;;10.11;75.23;98319.41;4926024;29;20103;-91
2023/10/13 01:58:16;;;;;;;10.10;3.58;;;;;;;10.17;75.47;98336.41;4904116;29;20131;-89
2023/10/13 02:00:43;;;;;;;9.48;2.08;;;;;;;10.13;75.13;98328.03;4881918;29;20594;-89
2023/10/13 02:03:18;;;;;;;7.93;2.03;;;;;;;10.26;75.28;98348.84;4891246;29;20040;-90
2023/10/13 02:05:48;;;;;;;19.45;2.08;;;;;;;10.25;75.47;98357.34;4893128;29;20051;-89
2023/10/13 02:08:25;;;;;;;9.48;2.22;;;;;;;9.94;75.64;98309.44;4885397;29;20047;-88
2023/10/13 02:10:56;;;;;;;10.25;1.77;;;;;;;9.88;75.51;98297.09;4908251;29;20048;-91
2023/10/13 02:13:25;;;;;;;6.57;1.90;;;;;;;10.06;75.13;98320.38;4907544;29;20052;-94
2023/10/13 02:15:56;;;;;;;7.97;2.05;;;;;;;10.28;75.03;98354.00;4858695;29;20051;-91
2023/10/13 02:18:27;;;;;;;6.32;2.13;;;;;;;9.98;74.91;98324.00;4882880;29;20090;-90
2023/10/13 02:20:55;;;;;;;9.07;2.03;;;;;;;10.11;74.70;98338.53;4895808;29;20043;-90
2023/10/13 02:23:29;;;;;;;8.50;2.10;;;;;;;10.03;75.02;98353.84;4904382;29;20059;-92
2023/10/13 02:26:12;;;;;;;9.88;2.00;;;;;;;9.76;75.60;98319.66;4895635;29;20035;-89
2023/10/13 02:28:38;;;;;;;5.53;1.77;;;;;;;10.09;75.64;98371.59;4891889;29;20040;-94
2023/10/13 02:31:07;;;;;;;10.27;2.53;;;;;;;9.89;75.76;98356.00;4892991;29;20059;-89
2023/10/13 02:33:44;;;;;;;8.80;2.33;;;;;;;10.07;75.61;98371.16;4853235;29;20056;-91
2023/10/13 02:36:12;;;;;;;7.53;1.65;;;;;;;10.01;75.37;98358.81;4884295;29;20047;-90
2023/10/13 02:41:30;;;;;;;9.23;2.30;;;;;;;9.89;74.81;98326.78;4867742;29;20053;-90
2023/10/13 02:43:56;;;;;;;17.25;2.90;;;;;;;9.97;74.48;98332.53;4875133;29;20057;-90
2023/10/13 02:46:28;;;;;;;10.45;2.10;;;;;;;9.83;74.39;98325.41;4858219;29;20045;-91
2023/10/13 02:48:57;;;;;;;12.15;2.03;;;;;;;10.07;74.23;98362.16;4871447;29;20049;-90
2023/10/13 02:51:31;;;;;;;12.50;2.42;;;;;;;10.06;73.90;98364.06;4856750;29;20049;-92
2023/10/13 02:54:02;;;;;;;16.77;2.40;;;;;;;10.04;74.10;98368.28;4872266;29;20060;-90
2023/10/13 02:56:30;;;;;;;11.32;2.25;;;;;;;10.20;73.65;98388.41;4854398;29;20060;-90
2023/10/13 02:59:04;;;;;;;7.60;2.00;;;;;;;10.00;73.62;98372.78;4854313;29;20602;-91
2023/10/13 03:01:34;;;;;;;8.90;2.28;;;;;;;10.15;73.72;98402.25;4845442;29;20045;-93
2023/10/13 03:04:02;;;;;;;8.88;2.17;;;;;;;9.99;73.98;98372.00;4875224;29;20058;-90
2023/10/13 03:06:32;;;;;;;5.35;1.70;;;;;;;9.85;73.94;98368.72;4852074;29;20048;-90
2023/10/13 03:09:21;;;;;;;16.05;2.20;;;;;;;10.15;73.75;98415.91;4849501;29;20101;-92
2023/10/13 03:11:49;;;;;;;11.48;2.05;;;;;;;10.03;73.57;98388.50;4834924;29;20044;-90
2023/10/13 03:22:30;;;;;;;5.88;2.08;;;;;;;9.81;74.13;98412.28;4876840;29;20049;-94
2023/10/13 03:25:09;;;;;;;12.23;2.20;;;;;;;9.93;73.94;98422.47;4815008;29;20077;-89
2023/10/13 03:30:30;;;;;;;12.18;2.40;;;;;;;9.79;73.65;98384.50;4865671;29;20545;-89
2023/10/13 03:33:00;;;;;;;7.07;2.03;;;;;;;9.95;73.44;98395.66;4835907;29;20061;-92
2023/10/13 03:36:05;;;;;;;12.15;2.25;;;;;;;10.17;73.11;98431.97;4844580;29;20073;-88
2023/10/13 03:38:26;;;;;;;8.10;2.17;;;;;;;10.19;72.44;98435.94;4858074;29;20064;-93
2023/10/13 03:40:56;;;;;;;6.63;1.85;;;;;;;10.03;72.76;98407.63;4841902;29;20065;-90
2023/10/13 03:43:29;;;;;;;11.05;2.65;;;;;;;10.00;72.67;98421.94;4838497;29;20113;-89
2023/10/13 03:46:07;;;;;;;9.70;1.77;;;;;;;10.00;72.64;98413.75;4856884;29;20539;-93
2023/10/13 03:48:40;;;;;;;12.77;2.40;;;;;;;10.03;72.54;98435.75;4809466;29;20052;-92
2023/10/13 03:51:15;;;;;;;7.63;2.20;;;;;;;9.72;72.99;98400.59;4839351;29;20058;-90
2023/10/13 03:53:54;;;;;;;9.48;1.90;;;;;;;9.83;73.02;98437.31;4842127;29;20054;-89
2023/10/13 03:56:27;;;;;;;11.10;2.40;;;;;;;9.75;72.96;98421.78;4872416;29;20057;-89
2023/10/13 03:59:00;;;;;;;9.13;1.88;;;;;;;9.70;72.91;98421.16;4891806;28;20062;-89
2023/10/13 04:01:45;;;;;;;5.10;1.90;;;;;;;9.88;72.69;98447.25;4897451;29;20047;-92
2023/10/13 04:04:29;;;;;;;11.18;2.10;;;;;;;9.75;72.52;98443.59;4891979;29;20103;-90
2023/10/13 04:15:18;;;;;;;7.75;2.00;;;;;;;9.77;71.78;98440.56;4945056;29;20063;-90
2023/10/13 04:18:13;;;;;;;11.07;1.70;;;;;;;9.63;71.56;98433.41;4908717;29;20099;-90
2023/10/13 04:20:46;;;;;;;16.13;2.63;;;;;;;9.59;71.23;98443.34;4884597;29;20021;-91
2023/10/13 04:23:19;;;;;;;9.65;2.15;;;;;;;9.96;71.25;98497.44;4918429;29;20142;-85
2023/10/13 04:28:37;;;;;;;7.45;2.00;;;;;;;9.97;71.59;98496.34;4933851;29;20468;-84
2023/10/13 04:31:46;;;;;;;5.00;1.95;;;;;;;9.96;71.83;98502.91;4910199;29;20048;-85
2023/10/13 04:34:19;;;;;;;6.25;2.08;;;;;;;9.92;71.68;98505.50;4915206;29;20028;-85
2023/10/13 04:36:46;;;;;;;12.00;2.55;;;;;;;9.65;71.64;98474.78;4947326;29;20040;-85
2023/10/13 04:39:29;;;;;;;9.48;2.40;;;;;;;9.76;71.79;98486.13;4930000;29;20092;-84
2023/10/13 04:49:28;;;;;;;10.85;2.97;;;;;;;9.99;71.28;98529.56;4900751;29;20135;-86
2023/10/13 04:51:59;;;;;;;14.63;2.88;;;;;;;10.10;71.11;98537.06;4909042;29;20047;-86
2023/10/13 04:54:34;;;;;;;12.43;2.95;;;;;;;10.10;70.91;98560.84;4911044;29;20043;-85
2023/10/13 05:52:06;;;;;;;16.17;2.83;;;;;;;10.82;67.35;98655.47;4914716;29;20046;-88
2023/10/13 06:30:17;;;;;;;11.02;2.30;;;;;;;11.15;62.96;98670.41;4912408;29;20143;-84
2023/10/13 06:32:46;;;;;;;6.60;2.20;;;;;;;11.26;63.34;98680.63;4902263;29;20031;-88
2023/10/13 06:35:24;;;;;;;14.30;3.05;;;;;;;11.31;62.53;98689.78;4903333;29;20055;-86
2023/10/13 06:37:51;;;;;;;9.15;2.75;;;;;;;11.12;62.28;98649.97;4894956;29;20123;-87
2023/10/13 06:40:32;;;;;;;6.35;2.33;;;;;;;11.47;61.61;98696.25;4927305;29;20095;-87
2023/10/13 06:43:12;;;;;;;9.68;2.67;;;;;;;11.38;61.82;98701.78;4920536;29;20052;-86
2023/10/13 06:45:43;;;;;;;10.05;2.10;;;;;;;11.38;61.56;98703.72;4906623;29;20039;-86
2023/10/13 06:48:13;;;;;;;12.15;2.50;;;;;;;11.46;61.70;98705.59;4889869;29;20052;-86
2023/10/13 06:50:41;;;;;;;7.28;1.80;;;;;;;11.49;60.87;98722.16;4906965;29;20055;-84
2023/10/13 06:53:08;;;;;;;6.18;1.98;;;;;;;11.40;59.97;98710.47;4930138;29;20129;-86
2023/10/13 06:55:39;;;;;;;6.03;1.83;;;;;;;11.52;59.57;98724.22;4921746;29;20040;-86
2023/10/13 06:58:13;;;;;;;14.30;1.90;;;;;;;11.54;59.01;98762.19;4928216;29;20044;-85
2023/10/13 07:00:40;;;;;;;6.65;1.70;;;;;;;11.35;57.58;98734.47;4914132;29;20056;-87
2023/10/13 07:03:17;;;;;;;8.07;1.90;;;;;;;11.17;58.13;98690.03;4933827;29;20134;-85
2023/10/13 07:05:47;;;;;;;5.60;1.73;;;;;;;11.23;58.14;98691.44;4943872;29;20068;-87
2023/10/13 07:08:19;;;;;;;5.40;1.85;;;;;;;11.13;58.80;98692.63;4925317;29;20473;-85
2023/10/13 07:11:17;;;;;;;6.60;1.77;;;;;;;11.34;58.78;98717.25;4929338;29;20146;-87
2023/10/13 07:13:50;;;;;;;4.72;1.80;;;;;;;11.48;57.88;98725.22;4925602;29;20075;-87
2023/10/13 07:16:35;;;;;;;2.83;1.48;;;;;;;11.61;58.07;98758.94;4917099;29;20095;-86
2023/10/13 07:19:05;;;;;;;5.38;1.42;;;;;;;11.60;58.65;98771.03;4912911;29;20051;-86
2023/10/13 07:21:33;;;;;;;5.97;2.00;;;;;;;11.51;58.16;98757.38;4928504;29;20119;-86
2023/10/13 07:24:17;;;;;;;4.45;1.77;;;;;;;11.48;57.71;98769.78;4931531;29;20052;-87
2023/10/13 07:27:01;;;;;;;3.95;1.80;;;;;;;11.53;58.04;98775.09;4930918;29;20091;-91
2023/10/13 07:29:29;;;;;;;11.90;1.83;;;;;;;11.68;57.65;98784.63;4895674;29;20112;-86
2023/10/13 07:31:55;;;;;;;8.30;2.05;;;;;;;11.61;58.30;98762.47;4926947;29;20075;-85
2023/10/13 07:34:31;;;;;;;7.93;2.15;;;;;;;11.74;57.49;98761.41;4916146;29;20052;-86
2023/10/13 07:37:00;;;;;;;5.70;1.90;;;;;;;11.72;57.06;98771.06;4933628;29;20453;-87
2023/10/13 07:39:34;;;;;;;6.22;1.98;;;;;;;11.66;56.62;98769.69;4920368;29;20062;-85
2023/10/13 07:42:03;;;;;;;11.63;1.85;;;;;;;11.72;56.44;98791.06;4933194;29;20047;-87
2023/10/13 07:44:33;;;;;;;2.47;1.23;;;;;;;11.60;56.46;98785.50;4953399;29;20517;-86
2023/10/13 07:47:04;;;;;;;6.00;1.80;;;;;;;11.38;55.57;98761.97;4941740;29;20075;-88
2023/10/13 07:49:36;;;;;;;8.05;2.05;;;;;;;11.75;55.57;98822.44;4932133;29;20040;-87
2023/10/13 07:53:18;;;;;;;6.65;1.90;;;;;;;11.67;56.22;98804.16;4913274;29;20067;-84
2023/10/13 07:55:19;;;;;;;8.15;2.30;;;;;;;11.69;55.90;98801.88;4917728;29;20084;-85
2023/10/13 07:57:56;;;;;;;7.13;2.65;;;;;;;11.68;55.48;98789.31;4912878;29;20100;-85
2023/10/13 08:00:46;;;;;;;4.70;1.92;;;;;;;11.70;54.98;98798.00;4937412;29;20055;-85
2023/10/13 08:06:28;;;;;;;5.60;1.60;;;;;;;11.80;53.87;98837.88;4917735;29;20072;-85
2023/10/13 08:08:42;;;;;;;8.50;1.75;;;;;;;11.89;53.54;98827.72;4923399;29;20039;-86
2023/10/13 08:14:00;;;;;;;5.95;1.77;;;;;;;11.71;52.71;98829.72;4923600;29;20410;-84
2023/10/13 08:19:17;;;;;;;6.47;1.50;;;;;;;11.52;53.17;98814.56;4912445;29;20048;-85
2023/10/13 08:21:57;;;;;;;9.77;1.80;;;;;;;11.65;53.21;98839.25;4909721;29;20073;-83
2023/10/13 08:45:53;;;;;;;10.48;1.85;;;;;;;12.22;50.41;98912.72;4941824;29;20040;-87
2023/10/13 08:52:05;;;;;;;18.88;1.98;;;;;;;12.26;49.44;98921.06;4918934;29;20083;-85
2023/10/13 08:57:19;;;;;;;5.38;1.73;;;;;;;11.84;48.07;98858.81;4913594;29;20054;-85
2023/10/13 08:59:55;;;;;;;6.60;1.40;;;;;;;11.85;48.39;98871.38;4905151;29;20041;-88
2023/10/13 09:05:41;;;;;;;4.85;1.50;;;;;;;12.06;48.03;98922.66;4914358;29;20040;-85
2023/10/13 09:08:08;;;;;;;5.97;1.60;;;;;;;12.17;48.03;98932.09;4923242;29;20048;-86
2023/10/13 09:10:44;;;;;;;6.20;1.95;;;;;;;12.22;47.55;98927.22;4897548;29;20105;-87
2023/10/13 09:13:20;;;;;;;8.65;2.00;;;;;;;12.22;47.80;98918.19;4914916;29;20040;-84
2023/10/13 09:16:01;;;;;;;6.57;1.80;;;;;;;12.02;47.24;98897.88;4930061;29;20044;-84
2023/10/13 09:18:46;;;;;;;2.78;1.45;;;;;;;12.26;47.69;98915.59;4924917;29;20067;-84
2023/10/13 09:26:55;;;;;;;3.45;1.85;;;;;;;12.79;46.96;98949.66;4897964;29;20104;-84
2023/10/13 09:29:24;;;;;;;3.95;1.73;;;;;;;12.83;46.08;98947.84;4889806;29;20155;-86
2023/10/13 09:32:03;;;;;;;4.93;1.52;;;;;;;12.68;46.66;98906.22;4877285;29;20460;-86
2023/10/13 09:34:33;;;;;;;8.38;1.60;;;;;;;13.10;46.17;98955.47;4879151;29;20092;-86
2023/10/13 09:37:03;;;;;;;8.07;1.60;;;;;;;13.10;45.00;98954.69;4910614;29;20072;-85
2023/10/13 09:39:34;;;;;;;3.67;1.40;;;;;;;13.07;45.83;98947.94;4921950;29;20111;-85
2023/10/13 09:42:10;;;;;;;3.97;1.65;;;;;;;13.27;46.47;98940.00;4887032;29;20059;-85
2023/10/13 09:44:40;;;;;;;6.15;1.65;;;;;;;13.36;45.80;98966.22;4894341;29;20048;-84
2023/10/13 09:47:18;;;;;;;5.82;1.63;;;;;;;13.37;44.97;98978.00;4921537;29;20036;-85
2023/10/13 09:49:45;;;;;;;4.50;1.60;;;;;;;13.25;45.03;98954.09;4889642;29;20048;-86
2023/10/13 09:52:20;;;;;;;6.95;1.70;;;;;;;13.01;45.34;98973.16;4895284;29;20050;-85
2023/10/13 09:55:04;;;;;;;8.80;1.70;;;;;;;12.75;46.14;98940.50;4904782;29;20696;-87
2023/10/13 09:57:41;;;;;;;3.63;1.40;;;;;;;13.10;45.13;98991.16;4907109;29;20044;-86
2023/10/13 10:03:51;;;;;;;3.22;1.67;;;;;;;13.03;45.70;99001.09;4919182;29;20032;-87
2023/10/13 10:06:13;;;;;;;6.50;1.70;;;;;;;13.04;46.04;98988.97;4903040;29;20052;-85
2023/10/13 10:08:50;;;;;;;6.38;1.65;;;;;;;13.11;45.75;99033.13;4885620;29;20053;-88
2023/10/13 10:11:51;;;;;;;3.88;1.60;;;;;;;13.08;45.77;99015.41;4916044;29;20051;-89
2023/10/13 10:15:20;;;;;;;6.97;1.55;;;;;;;13.10;44.98;99002.13;4911756;29;20392;-88
2023/10/13 10:17:49;;;;;;;11.48;1.85;;;;;;;12.89;45.57;99012.34;4878995;29;20079;-85
2023/10/13 10:21:07;;;;;;;8.25;2.40;;;;;;;13.08;46.09;99020.91;4909932;29;20111;-87
2023/10/13 10:23:48;;;;;;;6.28;2.05;;;;;;;13.42;45.75;99016.25;4917375;29;20420;-86
2023/10/13 10:26:22;;;;;;;4.95;1.73;;;;;;;13.22;46.32;98973.16;4898032;29;20040;-85
2023/10/13 10:28:48;;;;;;;6.43;1.98;;;;;;;13.36;45.36;99018.38;4927073;29;20044;-86
2023/10/13 10:31:17;;;;;;;7.83;1.53;;;;;;;13.39;45.21;99023.19;4917489;29;20036;-87
2023/10/13 10:33:46;;;;;;;13.93;2.60;;;;;;;13.44;45.17;99022.16;4868652;29;20047;-87
2023/10/13 10:36:15;;;;;;;4.10;1.73;;;;;;;13.11;44.78;98990.03;4902996;29;20044;-86
2023/10/13 10:38:58;;;;;;;5.97;1.75;;;;;;;13.32;44.47;99031.19;4864283;29;20041;-87
2023/10/13 10:41:44;;;;;;;6.10;1.73;;;;;;;13.21;44.46;99007.19;4908407;29;20139;-86
2023/10/13 10:44:37;;;;;;;13.05;2.28;;;;;;;13.36;44.45;99032.13;4903096;29;20044;-89
2023/10/13 10:47:19;;;;;;;5.53;1.77;;;;;;;13.43;44.46;99053.53;4886060;29;20476;-89
2023/10/13 10:49:47;;;;;;;9.65;1.90;;;;;;;13.05;45.44;99005.09;4876847;29;20053;-86
2023/10/13 10:52:20;;;;;;;23.48;2.38;;;;;;;13.09;45.27;99038.16;4909388;29;20041;-85
2023/10/13 10:55:00;;;;;;;9.87;1.70;;;;;;;12.83;45.11;99030.16;4911590;29;20107;-85
2023/10/13 10:57:29;;;;;;;4.85;1.65;;;;;;;12.52;46.12;99014.09;4892819;29;20078;-84
2023/10/13 11:00:14;;;;;;;6.75;1.63;;;;;;;12.87;46.10;99074.97;4897991;29;20042;-85
2023/10/13 11:03:01;;;;;;;7.20;1.60;;;;;;;12.84;46.16;99081.91;4926739;29;20043;-84
2023/10/13 11:05:32;;;;;;;14.23;1.75;;;;;;;12.82;46.35;99083.41;4898352;29;20036;-85
2023/10/13 11:07:59;;;;;;;4.43;1.40;;;;;;;12.78;45.61;99071.47;4921342;29;20036;-89
2023/10/13 11:10:30;;;;;;;9.00;1.88;;;;;;;12.78;45.61;99063.25;4922841;29;20040;-88
2023/10/13 11:13:16;;;;;;;8.23;1.60;;;;;;;13.01;44.54;99091.16;4905688;29;20044;-83
2023/10/13 11:15:47;;;;;;;3.75;1.50;;;;;;;13.08;43.13;99107.91;4933752;29;20109;-84
2023/10/13 11:18:21;;;;;;;6.90;1.40;;;;;;;12.83;43.56;99069.34;4934734;29;20024;-86
2023/10/13 11:20:55;;;;;;;3.70;1.50;;;;;;;12.88;43.17;99073.81;4917914;29;20036;-84
2023/10/13 11:23:25;;;;;;;5.32;1.42;;;;;;;12.83;43.73;99076.78;4913534;29;20056;-86
2023/10/13 11:26:05;;;;;;;10.25;1.48;;;;;;;13.08;44.17;99095.00;4941627;29;20020;-93
2023/10/13 11:28:34;;;;;;;5.93;1.73;;;;;;;13.05;44.32;99081.94;4939087;29;20302;-84
2023/10/13 11:31:13;;;;;;;10.05;2.00;;;;;;;13.34;44.59;99113.19;4929759;29;20044;-86
2023/10/13 11:33:47;;;;;;;10.68;1.75;;;;;;;13.32;44.46;99116.28;4931023;29;20478;-86
2023/10/13 11:36:19;;;;;;;6.80;2.10;;;;;;;13.22;44.12;99091.97;4913067;29;20070;-85
2023/10/13 11:38:57;;;;;;;5.72;2.20;;;;;;;13.51;44.40;99120.47;4894577;29;20075;-88
2023/10/13 11:41:53;;;;;;;5.63;1.77;;;;;;;13.42;44.53;99071.16;4937343;29;20039;-89
2023/10/13 11:45:01;;;;;;;6.40;1.73;;;;;;;13.64;44.47;99097.41;4936256;29;20032;-85
2023/10/13 11:47:47;;;;;;;4.38;1.77;;;;;;;13.72;43.30;99117.72;4940074;29;20499;-85
2023/10/13 11:50:32;;;;;;;12.43;2.55;;;;;;;13.71;43.39;99118.84;4921763;29;20048;-85
2023/10/13 11:53:00;;;;;;;5.72;1.80;;;;;;;13.59;43.40;99097.63;4936862;29;20052;-92
2023/10/13 11:55:26;;;;;;;2.72;1.55;;;;;;;13.68;42.29;99117.59;4918307;29;20107;-92
2023/10/13 11:57:54;;;;;;;10.65;1.70;;;;;;;13.77;42.00;99121.03;4935338;29;20048;-85
2023/10/13 12:01:07;;;;;;;6.20;1.40;;;;;;;13.68;41.85;99128.56;4917582;29;20072;-86
2023/10/13 12:06:32;;;;;;;4.50;1.67;;;;;;;13.89;42.48;99133.22;4933306;29;20044;-90
2023/10/13 12:09:19;;;;;;;8.52;1.77;;;;;;;13.70;42.88;99107.03;4912861;29;20048;-86
2023/10/13 12:12:04;;;;;;;10.68;2.13;;;;;;;13.91;42.34;99137.22;4912758;29;20040;-88
2023/10/13 12:14:54;;;;;;;9.35;1.88;;;;;;;13.61;42.72;99125.59;4933873;29;20065;-87
2023/10/13 12:17:39;;;;;;;4.85;1.80;;;;;;;13.72;42.86;99123.22;4919786;29;20044;-83
2023/10/13 12:20:18;;;;;;;3.72;1.73;;;;;;;13.84;43.22;99137.78;4916921;29;20071;-85
2023/10/13 12:22:54;;;;;;;9.00;1.95;;;;;;;13.74;42.08;99113.50;4891397;29;20024;-88
2023/10/13 12:28:18;;;;;;;11.75;2.00;;;;;;;13.99;43.15;99143.78;4872779;29;20113;-89
2023/10/13 12:30:48;;;;;;;7.88;1.75;;;;;;;13.93;43.35;99126.69;4918376;29;20044;-89
2023/10/13 12:34:06;;;;;;;3.60;1.65;;;;;;;13.94;43.31;99105.50;4933505;29;20083;-86
2023/10/13 12:36:41;;;;;;;6.07;2.20;;;;;;;14.06;42.26;99136.56;4930561;29;20054;-86
2023/10/13 12:50:24;;;;;;;4.22;1.73;;;;;;;14.08;42.57;99139.00;4878661;29;20061;-90
2023/10/13 12:52:51;;;;;;;12.20;2.03;;;;;;;13.91;42.10;99126.25;4907120;29;20052;-86
2023/10/13 12:55:20;;;;;;;5.97;1.85;;;;;;;13.99;41.85;99138.28;4903468;29;20043;-87
2023/10/13 12:57:47;;;;;;;8.48;1.73;;;;;;;13.61;41.93;99095.38;4922231;29;20054;-89
2023/10/13 13:00:20;;;;;;;4.93;2.05;;;;;;;13.75;42.13;99117.03;4889696;29;20044;-87
2023/10/13 13:02:50;;;;;;;6.70;2.83;;;;;;;13.79;42.29;99105.03;4909488;29;20406;-83
2023/10/13 13:05:20;;;;;;;4.80;2.20;;;;;;;14.06;42.48;99166.81;4884406;29;20049;-84
2023/10/13 13:07:52;;;;;;;7.70;2.33;;;;;;;13.88;42.13;99156.34;4910280;29;20039;-85
2023/10/13 13:10:28;;;;;;;10.57;2.05;;;;;;;13.87;42.01;99174.75;4921783;29;20407;-84
2023/10/13 13:12:55;;;;;;;5.63;1.98;;;;;;;13.93;43.21;99176.16;4894893;29;20067;-85
2023/10/13 13:15:23;;;;;;;6.25;1.90;;;;;;;13.98;42.68;99172.41;4925235;29;20051;-90
2023/10/13 13:17:50;;;;;;;11.77;2.05;;;;;;;14.03;42.23;99183.16;4926617;29;20211;-91
2023/10/13 13:20:29;;;;;;;;;;;;;;;14.00;42.40;99183.84;4921558;29;20060;-84
2023/10/13 13:23:02;;;;;;;12.70;2.30;;;;;;;13.80;43.00;99175.31;4927764;29;19923;-88
2023/10/13 13:25:30;;;;;;;12.25;2.10;;;;;;;13.84;42.53;99181.75;4905924;29;20051;-85
2023/10/13 13:27:57;;;;;;;7.10;1.90;;;;;;;13.56;42.25;99180.69;4907915;29;20050;-87
2023/10/13 13:30:33;;;;;;;8.90;1.83;;;;;;;13.63;41.87;99179.00;4918861;29;20040;-87
2023/10/13 13:33:03;;;;;;;16.48;2.03;;;;;;;13.68;42.58;99177.22;4851330;29;20138;-90
2023/10/13 13:35:34;;;;;;;14.40;2.45;;;;;;;13.82;41.82;99200.50;4863190;29;20049;-85
2023/10/13 13:38:21;;;;;;;8.73;1.95;;;;;;;13.45;41.98;99166.59;4865887;29;20206;-84
2023/10/13 13:41:09;;;;;;;;;;;;;;;13.61;42.50;99205.22;4852308;29;20064;-91
2023/10/13 13:43:50;;;;;;;4.60;1.70;;;;;;;13.39;42.74;99179.69;4864636;29;19923;-83
2023/10/13 13:46:19;;;;;;;7.97;1.90;;;;;;;13.49;42.89;99191.44;4846069;29;20106;-88
2023/10/13 13:48:48;;;;;;;8.23;2.05;;;;;;;13.56;43.54;99208.16;4864053;29;20050;-87
2023/10/13 13:51:14;;;;;;;8.43;2.20;;;;;;;13.51;43.39;99206.44;4858858;29;20064;-88
2023/10/13 13:53:45;;;;;;;10.05;2.47;;;;;;;13.51;43.86;99217.41;4829188;29;20127;-84
2023/10/13 13:56:18;;;;;;;11.35;2.50;;;;;;;13.39;44.33;99215.41;4868244;29;20053;-88
2023/10/13 13:58:46;;;;;;;16.98;2.72;;;;;;;13.22;45.00;99195.47;4864066;29;20068;-90
2023/10/13 14:01:18;;;;;;;7.28;2.75;;;;;;;13.10;44.29;99207.16;4869020;29;20277;-90
2023/10/13 14:03:47;;;;;;;20.95;2.85;;;;;;;13.06;44.78;99206.22;4833614;29;20057;-89
2023/10/13 14:06:27;;;;;;;12.02;2.45;;;;;;;13.09;44.65;99225.56;4845890;29;20052;-89
2023/10/13 14:09:05;;;;;;;10.95;2.45;;;;;;;13.11;45.07;99233.47;4866886;29;20564;-88
2023/10/13 14:14:12;;;;;;;14.60;3.35;;;;;;;12.74;45.62;99199.44;4920988;29;20553;-87
2023/10/13 14:16:44;;;;;;;11.88;4.38;;;;;;;13.00;46.13;99245.97;4893289;29;20040;-89
2023/10/13 14:19:19;;;;;;;16.17;2.80;;;;;;;12.71;46.67;99228.34;4916406;29;20040;-85
2023/10/13 14:21:53;;;;;;;7.07;2.47;;;;;;;12.80;46.74;99262.03;4901764;29;20028;-90
2023/10/13 14:24:27;;;;;;;10.50;2.33;;;;;;;12.61;47.17;99236.94;4911271;29;20130;-86
2023/10/13 14:27:19;;;;;;;9.70;2.88;;;;;;;12.75;47.29;99273.19;4927021;29;20021;-86
2023/10/13 14:29:45;;;;;;;16.75;2.72;;;;;;;12.60;47.62;99260.81;4903262;29;20047;-85
2023/10/13 14:32:15;;;;;;;16.35;3.20;;;;;;;12.31;47.50;99227.84;4929343;29;20063;-85
2023/10/13 14:34:44;;;;;;;10.48;2.80;;;;;;;12.59;48.06;99288.56;4898479;29;20534;-84
2023/10/13 14:37:13;;;;;;;9.02;2.72;;;;;;;12.45;48.16;99281.34;4889216;29;20044;-82
2023/10/13 14:39:42;;;;;;;24.33;2.90;;;;;;;12.33;48.15;99266.69;4931594;29;20047;-82
2023/10/13 14:42:12;;;;;;;21.20;5.85;;;;;;;12.42;48.66;99289.41;4909034;29;20519;-84
2023/10/13 14:44:38;;;;;;;8.88;3.78;;;;;;;12.25;48.80;99267.50;4906009;29;20076;-83
2023/10/13 14:47:08;;;;;;;8.27;2.77;;;;;;;12.34;48.94;99302.00;4926123;29;20051;-83
2023/10/13 14:49:35;;;;;;;6.88;2.17;;;;;;;12.24;48.63;99288.63;4928459;29;20052;-83
2023/10/13 14:52:02;;;;;;;9.07;2.70;;;;;;;12.31;49.11;99315.53;4931797;29;20042;-84
2023/10/13 14:54:35;;;;;;;17.58;3.20;;;;;;;12.13;49.32;99279.13;4925364;29;20052;-83
2023/10/13 14:57:02;;;;;;;8.27;2.42;;;;;;;12.23;48.82;99312.50;4923377;29;20040;-84
2023/10/13 14:59:32;;;;;;;15.10;2.75;;;;;;;12.18;49.12;99328.28;4924458;29;20103;-83
2023/10/13 15:02:02;;;;;;;21.48;3.05;;;;;;;12.04;49.27;99290.09;4916354;29;20047;-83
2023/10/13 15:04:32;;;;;;;11.40;2.95;;;;;;;12.09;49.33;99317.34;4902769;29;20137;-83
2023/10/13 15:07:03;;;;;;;6.85;2.63;;;;;;;12.10;49.78;99318.94;4924259;29;20113;-82
2023/10/13 15:09:32;;;;;;;11.82;3.28;;;;;;;12.17;49.77;99334.91;4921097;29;20073;-82
2023/10/13 15:12:05;;;;;;;13.85;2.50;;;;;;;12.10;49.73;99337.31;4916610;29;20044;-82
2023/10/13 15:14:36;;;;;;;9.85;2.60;;;;;;;11.90;50.08;99325.06;4922854;29;20092;-83
2023/10/13 15:17:06;;;;;;;9.95;2.60;;;;;;;12.01;50.30;99351.00;4911011;29;20052;-87
2023/10/13 15:19:38;;;;;;;9.70;2.95;;;;;;;11.91;50.22;99335.69;4914109;29;20064;-84
2023/10/13 15:22:06;;;;;;;20.83;8.23;;;;;;;11.67;50.68;99306.00;4903644;29;20048;-92
2023/10/13 15:24:45;;;;;;;14.23;4.55;;;;;;;11.58;50.94;99285.22;4899428;29;20075;-83